Time;durP1;ratioP1;P1;durP2;ratioP2;P2;SDS_P1;SDS_P2;PMS_P1;PMS_P2;Temp;Humidity;BMP_temperature;BMP_pressure;BME280_temperature;BME280_humidity;BME280_pressure;Samples;Min_cycle;Max_cycle;Signal;HPM_P1;HPM_P2
2021/10/02 00:45:07;;;;;;;5.20;1.90;;;16.10;72.10;;;;;;5045450;28;20023;-74
2021/10/02 00:47:35;;;;;;;8.38;1.85;;;16.10;72.40;;;;;;5045676;28;20029;-74
2021/10/02 00:50:04;;;;;;;8.95;2.60;;;16.10;72.80;;;;;;5044565;28;20457;-74
2021/10/02 00:52:31;;;;;;;10.73;2.75;;;16.10;72.90;;;;;;5047512;28;20111;-74
2021/10/02 00:54:57;;;;;;;5.97;2.03;;;16.10;73.00;;;;;;5043021;28;20025;-73
2021/10/02 00:57:24;;;;;;;6.65;2.42;;;16.10;73.30;;;;;;5041408;28;20706;-74
2021/10/02 00:59:51;;;;;;;5.80;1.63;;;16.10;73.70;;;;;;5040874;28;20025;-74
2021/10/02 01:02:24;;;;;;;6.20;1.75;;;16.10;74.10;;;;;;5042709;28;20021;-74
2021/10/02 01:04:57;;;;;;;4.18;1.70;;;16.10;74.40;;;;;;5041968;28;20108;-74
2021/10/02 01:07:53;;;;;;;9.10;1.55;;;16.20;74.60;;;;;;5042524;28;20105;-74
2021/10/02 01:10:45;;;;;;;6.65;1.15;;;16.20;74.20;;;;;;5041919;28;20424;-74
2021/10/02 01:13:31;;;;;;;4.97;1.15;;;16.30;73.80;;;;;;5043135;28;20033;-74
2021/10/02 01:16:10;;;;;;;4.28;1.35;;;16.30;73.70;;;;;;5040071;28;20108;-74
2021/10/02 01:18:50;;;;;;;15.80;3.42;;;16.40;73.50;;;;;;5043839;28;20729;-74
2021/10/02 01:21:38;;;;;;;6.82;1.70;;;16.40;73.60;;;;;;5043279;28;20032;-74
2021/10/02 01:24:33;;;;;;;5.25;1.48;;;16.50;73.40;;;;;;5040768;28;20035;-74
2021/10/02 01:27:33;;;;;;;6.88;2.17;;;16.50;73.30;;;;;;5036798;28;20392;-74
2021/10/02 01:30:06;;;;;;;5.13;1.35;;;16.50;73.80;;;;;;5041171;28;20092;-74
2021/10/02 01:32:41;;;;;;;4.38;1.08;;;16.60;73.30;;;;;;5041738;28;20020;-73
2021/10/02 01:48:47;;;;;;;4.05;1.33;;;16.70;74.20;;;;;;5042744;28;20028;-74
2021/10/02 01:51:15;;;;;;;7.75;1.65;;;16.70;73.80;;;;;;5043241;28;20024;-74
2021/10/02 01:53:43;;;;;;;4.38;1.40;;;16.80;73.60;;;;;;5044758;28;20017;-74
2021/10/02 01:56:18;;;;;;;4.20;1.30;;;16.80;73.40;;;;;;5042153;28;20017;-75
2021/10/02 01:58:47;;;;;;;4.78;1.38;;;16.80;74.00;;;;;;5039117;28;20614;-74
2021/10/02 02:01:15;;;;;;;8.60;2.00;;;16.80;74.10;;;;;;5045059;28;20059;-75
2021/10/02 02:03:44;;;;;;;7.43;1.63;;;16.90;74.00;;;;;;5041256;28;20020;-74
2021/10/02 02:06:12;;;;;;;8.57;3.58;;;16.90;73.50;;;;;;5044781;28;20537;-75
2021/10/02 02:08:42;;;;;;;6.03;1.73;;;16.90;73.50;;;;;;5037885;28;20024;-75
2021/10/02 02:11:10;;;;;;;7.90;1.90;;;16.90;73.40;;;;;;5041469;28;20115;-75
2021/10/02 02:13:39;;;;;;;5.15;1.02;;;16.90;73.80;;;;;;5038712;28;20040;-75
2021/10/02 02:16:06;;;;;;;8.63;1.85;;;16.90;74.10;;;;;;5045576;28;20013;-75
2021/10/02 02:18:34;;;;;;;4.50;1.15;;;16.90;74.60;;;;;;5043322;28;20453;-75
2021/10/02 02:21:04;;;;;;;6.03;1.48;;;16.90;74.70;;;;;;5039959;28;20017;-74
2021/10/02 02:23:31;;;;;;;6.13;1.15;;;16.90;75.10;;;;;;5043611;28;20511;-73
2021/10/02 02:26:00;;;;;;;8.88;1.67;;;16.90;75.80;;;;;;5043928;28;20025;-72
2021/10/02 02:28:28;;;;;;;5.80;1.98;;;16.80;76.70;;;;;;5040966;28;20479;-72
2021/10/02 02:30:54;;;;;;;8.20;2.90;;;16.80;78.90;;;;;;5042357;28;20013;-71
2021/10/02 02:33:21;;;;;;;5.95;1.48;;;16.80;79.70;;;;;;5044499;28;20075;-71
2021/10/02 02:35:48;;;;;;;9.10;1.92;;;16.80;80.40;;;;;;5041632;28;20069;-71
2021/10/02 02:38:15;;;;;;;22.73;13.07;;;16.70;81.50;;;;;;5041177;28;20028;-71
2021/10/02 02:40:42;;;;;;;27.77;18.90;;;16.70;82.00;;;;;;5045573;28;20468;-71
2021/10/02 02:43:10;;;;;;;21.63;12.82;;;16.70;82.40;;;;;;5044976;28;20032;-71
2021/10/02 02:45:37;;;;;;;6.70;3.25;;;16.70;82.80;;;;;;5044678;28;20380;-72
2021/10/02 02:48:09;;;;;;;5.65;2.53;;;16.60;82.70;;;;;;5046352;28;20021;-74
2021/10/02 02:50:57;;;;;;;8.30;1.52;;;16.60;82.70;;;;;;5047060;28;20063;-73
2021/10/02 02:53:33;;;;;;;5.28;1.25;;;16.60;82.80;;;;;;5048354;28;20017;-72
2021/10/02 02:56:13;;;;;;;4.85;1.40;;;16.50;83.00;;;;;;5048488;28;20214;-71
2021/10/02 02:58:41;;;;;;;5.28;1.50;;;16.50;83.20;;;;;;5040924;28;20049;-70
2021/10/02 03:01:10;;;;;;;7.80;1.60;;;16.50;83.40;;;;;;5045633;28;20013;-71
2021/10/02 03:03:38;;;;;;;5.70;1.27;;;16.50;83.70;;;;;;5044169;28;20021;-71
2021/10/02 03:06:09;;;;;;;5.28;1.42;;;16.50;84.10;;;;;;5050875;28;20009;-70
2021/10/02 03:08:38;;;;;;;5.75;1.20;;;16.50;84.80;;;;;;5045891;28;20028;-71
2021/10/02 03:11:05;;;;;;;2.85;1.30;;;16.50;85.30;;;;;;5048355;28;20017;-71
2021/10/02 03:13:36;;;;;;;4.85;2.25;;;16.50;85.50;;;;;;5044278;28;20074;-71
2021/10/02 03:16:06;;;;;;;6.32;2.88;;;16.50;85.80;;;;;;5048014;28;20079;-72
2021/10/02 03:18:35;;;;;;;5.00;1.60;;;16.50;85.70;;;;;;5046701;28;20082;-72
2021/10/02 03:21:02;;;;;;;4.20;1.23;;;16.50;85.60;;;;;;5041819;28;20112;-73
2021/10/02 03:23:29;;;;;;;5.10;2.63;;;16.40;85.60;;;;;;5049152;28;20018;-71
2021/10/02 03:25:56;;;;;;;2.10;1.05;;;16.50;86.30;;;;;;5043132;28;20718;-72
2021/10/02 03:28:23;;;;;;;5.57;1.30;;;16.50;86.20;;;;;;5047643;28;20017;-73
2021/10/02 03:30:51;;;;;;;6.60;1.50;;;16.40;86.20;;;;;;5047407;28;20465;-71
2021/10/02 03:33:22;;;;;;;3.50;1.20;;;16.40;86.20;;;;;;5045607;28;20018;-71
2021/10/02 03:35:49;;;;;;;2.10;1.02;;;16.40;86.30;;;;;;5045962;28;20017;-72
2021/10/02 03:38:16;;;;;;;4.32;0.80;;;16.40;86.40;;;;;;5042145;28;20726;-73
2021/10/02 03:40:42;;;;;;;3.50;1.15;;;16.40;86.30;;;;;;5044221;28;20358;-74
2021/10/02 03:43:09;;;;;;;5.13;1.88;;;16.40;86.50;;;;;;5044771;28;20166;-74
2021/10/02 03:45:38;;;;;;;6.90;1.65;;;16.40;86.40;;;;;;5049613;28;20020;-71
2021/10/02 03:48:05;;;;;;;6.82;1.67;;;16.40;86.20;;;;;;5041715;28;20033;-72
2021/10/02 03:50:33;;;;;;;6.82;1.20;;;16.40;87.10;;;;;;5043814;28;20048;-73
2021/10/02 03:53:00;;;;;;;3.95;1.17;;;16.40;86.80;;;;;;5042047;28;20376;-71
2021/10/02 03:55:27;;;;;;;4.07;1.58;;;16.40;86.10;;;;;;5047418;28;20016;-73
2021/10/02 03:57:53;;;;;;;5.28;1.00;;;16.40;86.50;;;;;;5044836;28;20041;-73
2021/10/02 04:00:21;;;;;;;3.15;1.48;;;16.30;86.50;;;;;;5044044;28;20032;-73
2021/10/02 04:02:48;;;;;;;3.97;0.95;;;16.30;86.90;;;;;;5049038;28;20396;-72
2021/10/02 04:05:14;;;;;;;4.82;2.20;;;16.30;86.90;;;;;;5046247;28;20508;-72
2021/10/02 04:07:41;;;;;;;6.18;2.25;;;16.40;87.20;;;;;;5045050;28;20478;-73
2021/10/02 04:10:08;;;;;;;4.38;1.20;;;16.40;87.40;;;;;;5042066;28;20014;-72
2021/10/02 04:12:35;;;;;;;5.40;1.60;;;16.40;87.60;;;;;;5043647;28;20013;-72
2021/10/02 04:15:02;;;;;;;5.65;1.33;;;16.40;87.40;;;;;;5043606;28;20090;-73
2021/10/02 04:17:28;;;;;;;5.70;1.80;;;16.40;87.50;;;;;;5047170;28;20029;-73
2021/10/02 04:19:55;;;;;;;2.67;1.35;;;16.30;87.30;;;;;;5041280;28;20040;-73
2021/10/02 04:22:21;;;;;;;5.18;2.65;;;16.40;87.00;;;;;;5040293;28;20096;-74
2021/10/02 04:24:50;;;;;;;5.93;3.97;;;16.30;87.00;;;;;;5044330;28;20029;-74
2021/10/02 04:27:16;;;;;;;7.60;2.13;;;16.30;87.00;;;;;;5046255;28;20044;-73
2021/10/02 04:29:43;;;;;;;9.30;2.33;;;16.30;87.00;;;;;;5045105;28;20425;-72
2021/10/02 04:32:09;;;;;;;4.50;1.70;;;16.40;87.20;;;;;;5040821;28;20129;-73
2021/10/02 04:34:36;;;;;;;5.72;2.45;;;16.30;87.00;;;;;;5042212;28;20017;-71
2021/10/02 04:37:03;;;;;;;10.43;2.53;;;16.30;87.40;;;;;;5036745;28;20013;-72
2021/10/02 04:39:30;;;;;;;7.40;1.90;;;16.30;87.50;;;;;;5035374;28;20040;-73
2021/10/02 04:41:57;;;;;;;6.97;2.13;;;16.30;87.70;;;;;;5034383;28;20502;-74
2021/10/02 04:44:23;;;;;;;14.02;3.97;;;16.30;87.90;;;;;;5035574;28;20462;-72
2021/10/02 04:46:50;;;;;;;8.73;3.17;;;16.30;88.10;;;;;;5034107;28;20373;-71
2021/10/02 04:49:17;;;;;;;10.10;3.05;;;16.30;88.10;;;;;;5039350;28;20032;-72
2021/10/02 04:51:43;;;;;;;5.63;2.20;;;16.30;87.80;;;;;;5035069;28;20040;-69
2021/10/02 04:54:14;;;;;;;9.60;2.88;;;16.30;87.80;;;;;;5037147;28;20052;-71
2021/10/02 04:56:41;;;;;;;13.27;5.22;;;16.30;87.80;;;;;;5030885;28;20134;-72
2021/10/02 04:59:08;;;;;;;7.15;3.20;;;16.30;87.60;;;;;;5034381;28;20119;-72
2021/10/02 05:01:34;;;;;;;14.88;5.32;;;16.40;87.80;;;;;;5032743;28;20025;-72
2021/10/02 05:04:01;;;;;;;18.67;10.85;;;16.40;88.00;;;;;;5034624;28;20028;-72
2021/10/02 05:06:28;;;;;;;12.07;6.82;;;16.40;87.60;;;;;;5037268;28;20395;-72
2021/10/02 05:08:55;;;;;;;8.45;2.60;;;16.50;87.50;;;;;;5036401;28;20025;-72
2021/10/02 05:11:21;;;;;;;13.30;3.13;;;16.50;87.30;;;;;;5036352;28;20056;-72
2021/10/02 05:13:48;;;;;;;4.07;1.98;;;16.50;87.20;;;;;;5033491;28;20028;-72
2021/10/02 05:16:14;;;;;;;8.63;2.63;;;16.50;86.90;;;;;;5032791;28;20026;-73
2021/10/02 05:18:41;;;;;;;8.88;2.72;;;16.50;86.70;;;;;;5041228;28;20090;-71
2021/10/02 05:21:07;;;;;;;6.93;3.08;;;16.50;86.90;;;;;;5040538;28;20460;-72
2021/10/02 05:23:34;;;;;;;10.35;2.75;;;16.60;87.10;;;;;;5044917;28;20420;-73
2021/10/02 05:26:00;;;;;;;77.70;67.63;;;16.60;86.90;;;;;;5038768;28;20394;-73
2021/10/02 05:28:28;;;;;;;14.43;9.52;;;16.60;86.60;;;;;;5044355;28;20028;-72
2021/10/02 05:30:54;;;;;;;17.17;11.20;;;16.60;86.40;;;;;;5036431;28;20426;-76
2021/10/02 05:33:21;;;;;;;8.88;4.15;;;16.60;85.20;;;;;;5044723;28;20041;-75
2021/10/02 05:35:48;;;;;;;7.93;3.33;;;16.70;84.20;;;;;;5042864;28;20479;-75
2021/10/02 05:38:19;;;;;;;14.30;5.10;;;16.70;83.60;;;;;;5043639;28;20037;-76
2021/10/02 05:40:48;;;;;;;7.97;3.33;;;16.70;83.40;;;;;;5042834;28;20480;-74
2021/10/02 05:43:14;;;;;;;11.23;2.97;;;16.80;84.00;;;;;;5037662;28;20020;-75
2021/10/02 05:45:41;;;;;;;10.20;2.47;;;16.70;83.90;;;;;;5040059;28;20028;-74
2021/10/02 05:48:07;;;;;;;47.65;28.98;;;16.80;83.80;;;;;;5036588;28;20021;-77
2021/10/02 05:50:33;;;;;;;23.02;13.35;;;16.80;83.50;;;;;;5037098;28;20024;-75
2021/10/02 05:53:00;;;;;;;36.67;25.15;;;16.90;83.20;;;;;;5032660;28;20033;-72
2021/10/02 05:55:26;;;;;;;13.63;6.45;;;16.90;83.10;;;;;;5036702;28;20020;-75
2021/10/02 05:57:53;;;;;;;13.85;6.43;;;16.90;82.60;;;;;;5032695;28;20069;-73
2021/10/02 06:00:19;;;;;;;12.05;3.92;;;16.90;82.00;;;;;;5035198;28;20029;-76
2021/10/02 06:02:46;;;;;;;18.38;5.22;;;16.90;81.80;;;;;;5047559;28;20017;-74
2021/10/02 06:05:12;;;;;;;11.23;2.85;;;16.90;80.80;;;;;;5044004;28;20029;-74
2021/10/02 06:07:39;;;;;;;15.35;4.28;;;16.90;78.40;;;;;;5042577;28;20071;-75
2021/10/02 06:10:06;;;;;;;16.98;4.88;;;16.90;77.60;;;;;;5044223;28;20211;-73
2021/10/02 06:12:34;;;;;;;8.63;3.20;;;16.80;78.10;;;;;;5040374;28;20021;-76
2021/10/02 06:15:00;;;;;;;9.70;3.63;;;16.80;78.80;;;;;;5042381;28;20056;-76
2021/10/02 06:17:27;;;;;;;8.85;2.60;;;16.80;79.50;;;;;;5047164;28;20023;-74
2021/10/02 06:19:53;;;;;;;7.45;2.47;;;16.70;80.10;;;;;;5046665;28;20110;-74
2021/10/02 06:22:20;;;;;;;8.88;2.90;;;16.70;81.00;;;;;;5048400;28;20009;-72
2021/10/02 06:24:46;;;;;;;12.93;2.45;;;16.70;81.20;;;;;;5047291;28;20214;-73
2021/10/02 06:27:15;;;;;;;9.93;2.95;;;16.70;80.90;;;;;;5045552;28;20025;-72
2021/10/02 06:29:42;;;;;;;8.80;2.80;;;16.60;80.70;;;;;;5046208;28;20017;-74
2021/10/02 06:32:08;;;;;;;8.20;3.33;;;16.70;80.80;;;;;;5047900;28;20147;-75
2021/10/02 06:34:35;;;;;;;6.55;1.98;;;16.70;80.50;;;;;;5044739;28;20021;-75
2021/10/02 06:37:01;;;;;;;15.77;2.60;;;16.70;80.30;;;;;;5048094;28;20013;-75
2021/10/02 06:39:27;;;;;;;10.43;2.78;;;16.70;81.40;;;;;;5048417;28;20039;-75
2021/10/02 06:41:54;;;;;;;10.52;2.50;;;16.70;80.70;;;;;;5045679;28;20413;-72
2021/10/02 06:44:20;;;;;;;12.65;3.75;;;16.70;80.40;;;;;;5046450;28;20392;-73
2021/10/02 06:46:47;;;;;;;11.23;3.85;;;16.70;80.00;;;;;;5048319;28;20018;-75
2021/10/02 06:49:13;;;;;;;6.93;2.38;;;16.70;80.40;;;;;;5046048;28;20032;-76
2021/10/02 06:51:40;;;;;;;15.65;3.58;;;16.70;80.60;;;;;;5043446;28;20104;-75
2021/10/02 06:54:08;;;;;;;9.85;2.78;;;16.80;81.00;;;;;;5045877;28;20025;-73
2021/10/02 06:56:36;;;;;;;7.90;2.60;;;16.90;81.40;;;;;;5046577;28;20025;-76
2021/10/02 06:59:02;;;;;;;11.63;3.17;;;17.00;81.40;;;;;;5046888;28;20045;-74
2021/10/02 07:01:29;;;;;;;6.78;2.75;;;17.00;80.80;;;;;;5047189;28;20495;-75
2021/10/02 07:03:56;;;;;;;12.82;3.10;;;17.10;80.00;;;;;;5048943;28;20075;-77
2021/10/02 07:06:22;;;;;;;13.32;2.45;;;17.20;79.40;;;;;;5045081;28;20013;-73
2021/10/02 07:08:49;;;;;;;9.95;3.15;;;17.30;78.80;;;;;;5047271;28;20013;-73
2021/10/02 07:11:15;;;;;;;13.77;5.25;;;17.40;78.20;;;;;;5048212;28;20470;-76
2021/10/02 07:13:42;;;;;;;14.27;3.88;;;17.50;77.20;;;;;;5040829;28;20048;-76
2021/10/02 07:16:08;;;;;;;10.43;2.85;;;17.60;75.70;;;;;;5040217;28;20086;-75
2021/10/02 07:18:34;;;;;;;11.18;2.88;;;17.60;73.50;;;;;;5048238;28;20512;-77
2021/10/02 07:21:02;;;;;;;9.80;3.10;;;17.70;72.70;;;;;;5045077;28;20044;-76
2021/10/02 07:23:32;;;;;;;10.52;3.05;;;17.80;72.20;;;;;;5044225;28;20020;-77
2021/10/02 07:26:00;;;;;;;11.05;2.83;;;17.90;71.10;;;;;;5042099;28;20025;-76
2021/10/02 07:28:26;;;;;;;12.27;2.85;;;17.90;70.30;;;;;;5045150;28;20078;-75
2021/10/02 07:30:53;;;;;;;9.13;2.50;;;18.00;69.00;;;;;;5045276;28;20109;-77
2021/10/02 07:33:20;;;;;;;13.60;2.75;;;18.10;68.80;;;;;;5048096;28;20020;-76
2021/10/02 07:35:46;;;;;;;7.68;2.22;;;18.10;68.30;;;;;;5045578;28;20085;-76
2021/10/02 07:38:13;;;;;;;10.25;2.67;;;18.20;67.00;;;;;;5048541;28;20511;-76
2021/10/02 07:40:40;;;;;;;15.95;3.40;;;18.20;66.60;;;;;;5046131;28;20025;-78
2021/10/02 07:43:10;;;;;;;9.90;2.40;;;18.30;66.20;;;;;;5044440;28;20049;-75
2021/10/02 07:45:37;;;;;;;10.43;2.70;;;18.30;65.00;;;;;;5042081;28;20464;-78
2021/10/02 07:48:04;;;;;;;8.18;2.78;;;18.30;63.80;;;;;;5038737;28;20029;-77
2021/10/02 07:50:31;;;;;;;10.32;3.42;;;18.30;63.50;;;;;;5042375;28;20025;-77
2021/10/02 07:52:59;;;;;;;11.50;2.20;;;18.30;63.40;;;;;;5042777;28;20129;-75
2021/10/02 07:55:28;;;;;;;7.57;2.30;;;18.30;63.30;;;;;;5046066;28;20018;-76
2021/10/02 07:57:55;;;;;;;12.30;3.03;;;18.40;64.10;;;;;;5041450;28;20049;-76
2021/10/02 08:00:22;;;;;;;9.70;4.15;;;18.40;64.40;;;;;;5042822;28;20017;-77
2021/10/02 08:02:55;;;;;;;7.15;2.00;;;18.50;64.30;;;;;;5045898;28;20048;-73
2021/10/02 08:05:23;;;;;;;8.80;3.55;;;18.60;63.80;;;;;;5043300;28;20013;-73
2021/10/02 08:07:50;;;;;;;12.90;2.42;;;18.60;64.20;;;;;;5046297;28;20032;-74
2021/10/02 08:10:20;;;;;;;7.38;1.73;;;18.60;64.80;;;;;;5043025;28;20401;-74
2021/10/02 08:12:47;;;;;;;6.80;1.92;;;18.60;64.60;;;;;;5043218;28;20021;-74
2021/10/02 08:15:14;;;;;;;5.55;1.75;;;18.60;64.40;;;;;;5045063;28;20100;-74
2021/10/02 08:17:44;;;;;;;19.98;2.45;;;18.50;64.20;;;;;;5048144;28;20024;-74
2021/10/02 08:20:14;;;;;;;9.55;2.65;;;18.50;64.80;;;;;;5046439;28;20037;-74
2021/10/02 08:22:53;;;;;;;7.82;1.95;;;18.50;65.30;;;;;;5040660;28;20017;-74
2021/10/02 08:25:20;;;;;;;9.88;2.03;;;18.60;65.00;;;;;;5045918;28;20103;-74
2021/10/02 08:27:49;;;;;;;5.68;1.75;;;18.50;63.90;;;;;;5042624;28;20028;-76
2021/10/02 08:30:18;;;;;;;5.05;2.40;;;18.50;63.70;;;;;;5046565;28;20116;-74
2021/10/02 08:32:44;;;;;;;7.28;2.25;;;18.50;63.00;;;;;;5039613;28;20041;-74
2021/10/02 08:35:12;;;;;;;7.15;2.05;;;18.60;63.10;;;;;;5045927;28;20068;-77
2021/10/02 08:37:39;;;;;;;3.45;1.15;;;18.70;62.30;;;;;;5040888;28;20091;-79
2021/10/02 08:40:16;;;;;;;4.35;1.70;;;18.70;61.70;;;;;;5046261;28;20032;-77
2021/10/02 08:42:44;;;;;;;9.65;1.83;;;18.80;64.00;;;;;;5029849;28;20017;-75
2021/10/02 08:45:12;;;;;;;10.95;1.60;;;18.70;63.10;;;;;;5038301;28;20368;-74
2021/10/02 08:47:41;;;;;;;22.75;3.08;;;18.60;63.40;;;;;;5045153;28;20017;-75
2021/10/02 08:50:11;;;;;;;8.25;1.70;;;18.60;64.20;;;;;;5045743;28;20013;-73
2021/10/02 08:52:39;;;;;;;39.05;31.77;;;18.60;65.40;;;;;;5042238;28;20037;-72
2021/10/02 08:55:07;;;;;;;15.65;8.35;;;18.50;67.10;;;;;;5048628;28;20021;-72
2021/10/02 08:57:35;;;;;;;5.95;2.65;;;18.50;69.20;;;;;;5040943;28;20822;-71
2021/10/02 09:00:10;;;;;;;9.77;1.95;;;18.30;71.40;;;;;;5048678;28;20498;-71
2021/10/02 09:02:38;;;;;;;6.80;1.73;;;18.20;73.50;;;;;;5040244;28;20021;-72
2021/10/02 09:05:07;;;;;;;8.73;2.85;;;18.00;74.00;;;;;;5039500;28;20074;-71
2021/10/02 09:07:34;;;;;;;6.05;2.20;;;17.90;75.30;;;;;;5039050;28;20017;-71
2021/10/02 09:10:02;;;;;;;4.15;1.20;;;17.80;76.10;;;;;;5041359;28;20021;-71
2021/10/02 09:12:31;;;;;;;8.85;3.30;;;17.70;76.40;;;;;;5044838;28;20025;-71
2021/10/02 09:15:02;;;;;;;9.80;1.60;;;17.70;76.80;;;;;;5040666;28;20102;-73
2021/10/02 09:17:32;;;;;;;5.07;1.42;;;17.70;76.20;;;;;;5043322;28;21046;-71
2021/10/02 09:20:00;;;;;;;7.15;1.25;;;17.70;76.10;;;;;;5049664;28;20033;-72
2021/10/02 09:22:27;;;;;;;5.68;1.40;;;17.70;74.60;;;;;;5043776;28;20028;-74
2021/10/02 09:24:58;;;;;;;4.88;1.50;;;17.70;74.40;;;;;;5043515;28;20013;-74
2021/10/02 09:27:27;;;;;;;44.40;9.05;;;17.80;73.60;;;;;;5042182;28;20028;-73
2021/10/02 09:29:59;;;;;;;61.40;6.03;;;17.80;72.80;;;;;;5040720;28;20033;-74
2021/10/02 09:32:34;;;;;;;35.78;7.18;;;17.80;70.80;;;;;;5042552;28;20418;-72
2021/10/02 09:35:07;;;;;;;9.65;2.05;;;17.80;69.40;;;;;;5044513;28;20075;-75
2021/10/02 09:37:37;;;;;;;6.50;1.70;;;17.80;67.30;;;;;;5039575;28;20699;-73
2021/10/02 09:40:05;;;;;;;11.98;5.30;;;17.70;66.90;;;;;;5040308;28;20373;-74
2021/10/02 09:42:31;;;;;;;19.52;7.50;;;17.70;67.20;;;;;;5042692;28;20078;-75
2021/10/02 09:45:04;;;;;;;8.75;1.83;;;17.60;68.20;;;;;;5033672;28;20029;-72
2021/10/02 09:47:31;;;;;;;6.00;2.20;;;17.60;69.60;;;;;;5040186;28;20104;-76
2021/10/02 09:49:57;;;;;;;7.78;2.42;;;17.60;70.80;;;;;;5033021;28;20018;-76
2021/10/02 09:52:33;;;;;;;7.88;1.75;;;17.60;70.80;;;;;;5037596;28;20025;-75
2021/10/02 09:55:13;;;;;;;8.75;2.88;;;17.70;70.80;;;;;;5037062;28;20631;-76
2021/10/02 09:57:42;;;;;;;10.93;2.17;;;17.70;69.90;;;;;;5033616;28;20037;-75
2021/10/02 10:00:16;;;;;;;7.40;2.65;;;17.80;68.30;;;;;;5030661;28;20063;-76
2021/10/02 10:02:44;;;;;;;11.30;2.50;;;17.80;67.70;;;;;;5049817;28;20373;-72
2021/10/02 10:05:12;;;;;;;7.05;1.90;;;17.80;67.90;;;;;;5036070;28;20028;-74
2021/10/02 10:07:40;;;;;;;6.30;1.40;;;17.70;66.20;;;;;;5034958;28;20016;-75
2021/10/02 10:10:14;;;;;;;14.60;2.60;;;17.70;66.90;;;;;;5034771;28;20076;-76
2021/10/02 10:12:43;;;;;;;8.55;2.58;;;17.70;66.80;;;;;;5039052;28;20472;-76
2021/10/02 10:15:29;;;;;;;14.93;4.28;;;17.70;65.40;;;;;;5051328;28;20021;-74
2021/10/02 10:17:57;;;;;;;12.00;2.17;;;17.70;65.40;;;;;;5038627;28;20100;-74
2021/10/02 10:20:51;;;;;;;11.02;2.53;;;17.70;65.10;;;;;;5039182;28;20040;-74
2021/10/02 10:23:35;;;;;;;8.00;3.47;;;17.70;64.30;;;;;;5034179;28;20504;-74
2021/10/02 10:26:10;;;;;;;10.73;2.33;;;17.80;63.70;;;;;;5043714;28;20026;-75
2021/10/02 10:28:40;;;;;;;13.63;2.90;;;17.90;63.70;;;;;;5036470;28;20025;-78
2021/10/02 10:31:12;;;;;;;12.07;2.40;;;18.00;62.30;;;;;;5035948;28;20025;-74
2021/10/02 10:33:40;;;;;;;12.77;3.33;;;18.10;61.70;;;;;;5038221;28;20021;-75
2021/10/02 10:36:07;;;;;;;8.90;2.15;;;18.30;61.20;;;;;;5036226;28;20017;-75
2021/10/02 10:38:35;;;;;;;11.45;2.70;;;18.50;60.50;;;;;;5034185;28;20079;-75
2021/10/02 10:41:04;;;;;;;15.13;8.38;;;18.60;59.00;;;;;;5034534;28;20022;-76
2021/10/02 10:43:33;;;;;;;10.27;4.00;;;18.80;59.00;;;;;;5035336;28;20122;-75
2021/10/02 10:46:01;;;;;;;7.85;2.53;;;18.80;57.30;;;;;;5036524;28;20010;-71
2021/10/02 10:48:28;;;;;;;9.68;3.00;;;18.80;55.80;;;;;;5036076;28;20025;-74
2021/10/02 10:51:01;;;;;;;10.35;2.00;;;18.90;55.50;;;;;;5033246;28;20021;-73
2021/10/02 10:53:49;;;;;;;10.90;2.28;;;19.10;55.50;;;;;;5033546;28;20066;-76
2021/10/02 10:56:18;;;;;;;8.85;2.15;;;19.20;54.30;;;;;;5033065;28;20026;-73
2021/10/02 10:58:58;;;;;;;6.50;2.15;;;19.30;52.90;;;;;;5036168;28;20052;-76
2021/10/02 11:01:35;;;;;;;7.40;1.50;;;19.40;52.70;;;;;;5034125;28;20428;-78
2021/10/02 11:04:02;;;;;;;3.95;2.00;;;19.50;50.80;;;;;;5039612;28;20025;-77
2021/10/02 11:06:52;;;;;;;17.52;8.20;;;19.50;50.20;;;;;;5041048;28;20025;-73
2021/10/02 11:09:43;;;;;;;15.85;9.82;;;19.60;49.80;;;;;;5040122;28;20029;-76
2021/10/02 11:12:14;;;;;;;9.07;2.67;;;19.70;50.40;;;;;;5038813;28;20064;-76
2021/10/02 11:14:59;;;;;;;5.72;2.00;;;19.80;49.20;;;;;;5039175;28;20468;-77
2021/10/02 11:17:28;;;;;;;7.43;2.15;;;19.80;48.40;;;;;;5046332;28;20057;-74
2021/10/02 11:19:55;;;;;;;10.45;1.80;;;19.80;47.40;;;;;;5040663;28;20108;-75
2021/10/02 11:23:08;;;;;;;5.60;1.73;;;19.80;47.60;;;;;;5038921;28;20033;-76
2021/10/02 11:25:36;;;;;;;4.22;1.38;;;19.90;46.90;;;;;;5038136;28;20009;-75
2021/10/02 11:28:21;;;;;;;5.47;1.33;;;20.00;47.30;;;;;;5039244;28;20014;-75
2021/10/02 11:30:50;;;;;;;18.40;11.63;;;20.10;47.50;;;;;;5041213;28;20456;-74
2021/10/02 11:33:40;;;;;;;8.77;3.22;;;20.20;46.20;;;;;;5037803;28;20014;-75
2021/10/02 11:36:46;;;;;;;8.77;1.05;;;20.30;45.10;;;;;;5035944;28;20434;-76
2021/10/02 11:39:34;;;;;;;7.65;1.85;;;20.40;44.30;;;;;;5017381;28;20416;-73
2021/10/02 11:42:12;;;;;;;5.63;1.90;;;20.40;44.20;;;;;;5017236;28;20049;-75
2021/10/02 11:44:49;;;;;;;8.85;2.22;;;20.50;44.60;;;;;;5029531;28;20033;-72
2021/10/02 11:47:38;;;;;;;12.65;1.92;;;20.50;44.10;;;;;;5038032;28;20814;-72
2021/10/02 11:50:08;;;;;;;7.80;2.00;;;20.60;45.00;;;;;;5037476;28;20148;-72
2021/10/02 11:52:42;;;;;;;6.70;2.05;;;20.70;45.10;;;;;;5037741;28;20126;-72
2021/10/02 11:55:33;;;;;;;10.30;3.25;;;20.80;45.00;;;;;;5035401;28;20028;-74
2021/10/02 11:58:11;;;;;;;6.68;1.52;;;20.70;44.70;;;;;;5038375;28;20145;-73
2021/10/02 12:00:57;;;;;;;8.60;1.80;;;20.90;46.00;;;;;;5037061;28;20396;-75
2021/10/02 12:03:25;;;;;;;6.80;1.35;;;20.90;45.80;;;;;;5039299;28;20030;-75
2021/10/02 12:05:53;;;;;;;7.30;2.03;;;21.00;45.10;;;;;;5035453;28;20060;-76
2021/10/02 12:08:20;;;;;;;7.15;1.77;;;21.10;43.80;;;;;;5036115;28;20063;-76
2021/10/02 12:11:10;;;;;;;5.53;1.30;;;21.10;43.30;;;;;;5036102;28;20021;-73
2021/10/02 12:13:51;;;;;;;7.22;2.53;;;21.10;42.60;;;;;;5034756;28;20079;-74
2021/10/02 12:16:22;;;;;;;7.07;2.00;;;21.20;42.60;;;;;;5036964;28;20147;-74
2021/10/02 12:18:57;;;;;;;7.43;1.67;;;21.20;41.20;;;;;;5038195;28;20013;-70
2021/10/02 12:21:25;;;;;;;12.93;5.65;;;21.20;41.70;;;;;;5037215;28;20013;-72
2021/10/02 12:24:04;;;;;;;9.23;2.75;;;21.20;41.20;;;;;;5037328;28;20408;-72
2021/10/02 12:26:40;;;;;;;9.40;1.98;;;21.20;41.40;;;;;;5036796;28;20025;-72
2021/10/02 12:29:09;;;;;;;15.30;3.33;;;21.20;40.00;;;;;;5037368;28;20025;-71
2021/10/02 12:31:41;;;;;;;5.95;1.27;;;21.20;40.70;;;;;;5036977;28;20040;-71
2021/10/02 12:34:14;;;;;;;5.43;1.55;;;21.20;39.90;;;;;;5035429;28;20064;-71
2021/10/02 12:36:44;;;;;;;9.80;2.03;;;21.30;40.20;;;;;;5037076;28;20022;-70
2021/10/02 12:39:11;;;;;;;7.47;2.25;;;21.30;39.70;;;;;;5033225;28;20021;-71
2021/10/02 12:41:47;;;;;;;5.60;1.73;;;21.20;39.40;;;;;;5033082;28;20025;-71
2021/10/02 12:44:23;;;;;;;6.72;2.60;;;21.20;39.20;;;;;;5032404;28;20017;-71
2021/10/02 12:46:50;;;;;;;9.00;1.55;;;21.20;39.00;;;;;;5033932;28;20020;-71
2021/10/02 12:49:19;;;;;;;5.95;1.40;;;21.20;38.30;;;;;;5034062;28;20029;-71
2021/10/02 12:51:46;;;;;;;9.48;1.67;;;21.20;38.40;;;;;;5031070;28;20817;-71
2021/10/02 12:54:15;;;;;;;5.20;1.30;;;21.10;38.60;;;;;;5030305;28;20073;-71
2021/10/02 12:57:04;;;;;;;6.75;1.48;;;21.10;39.90;;;;;;5038439;28;20021;-72
2021/10/02 12:59:43;;;;;;;3.70;1.10;;;21.10;40.10;;;;;;5031454;28;20041;-71
2021/10/02 13:02:13;;;;;;;6.28;3.10;;;21.10;39.60;;;;;;5038750;28;20034;-71
2021/10/02 13:04:39;;;;;;;7.72;2.10;;;21.20;40.10;;;;;;5033855;28;20126;-72
2021/10/02 13:07:07;;;;;;;8.75;2.58;;;21.20;40.40;;;;;;5031378;28;20029;-71
2021/10/02 13:10:02;;;;;;;7.15;2.13;;;21.10;40.80;;;;;;5035727;28;20405;-71
2021/10/02 13:12:36;;;;;;;4.07;1.70;;;21.10;40.80;;;;;;5034812;28;20488;-71
2021/10/02 13:15:06;;;;;;;4.35;1.20;;;21.10;38.60;;;;;;5033376;28;20288;-71
2021/10/02 13:17:32;;;;;;;6.50;1.42;;;21.10;38.20;;;;;;5036182;28;20029;-71
2021/10/02 13:20:11;;;;;;;7.10;3.90;;;21.10;39.30;;;;;;5034377;28;20037;-70
2021/10/02 13:22:44;;;;;;;5.82;2.15;;;21.10;37.70;;;;;;5035068;28;20080;-71
2021/10/02 13:25:14;;;;;;;8.73;1.58;;;21.20;38.40;;;;;;5033506;28;20116;-71
2021/10/02 13:27:45;;;;;;;6.28;2.55;;;21.10;40.50;;;;;;5033540;28;20028;-71
2021/10/02 13:30:21;;;;;;;3.13;1.58;;;21.10;40.60;;;;;;5035302;28;20016;-71
2021/10/02 13:33:11;;;;;;;2.78;0.90;;;21.00;39.80;;;;;;5037509;28;20491;-72
2021/10/02 13:35:41;;;;;;;4.93;1.50;;;21.00;38.40;;;;;;5034355;28;20034;-72
2021/10/02 13:38:09;;;;;;;5.45;1.65;;;20.80;38.40;;;;;;5035007;28;20507;-72
2021/10/02 13:40:38;;;;;;;11.63;6.35;;;20.80;39.70;;;;;;5032098;28;20085;-72
2021/10/02 13:43:10;;;;;;;9.63;4.75;;;20.80;42.90;;;;;;5038780;28;20021;-72
2021/10/02 13:45:42;;;;;;;8.80;2.47;;;20.80;43.50;;;;;;5035891;28;20018;-72
2021/10/02 13:48:12;;;;;;;5.45;2.08;;;20.80;43.10;;;;;;5036004;28;20025;-71
2021/10/02 13:50:44;;;;;;;10.48;2.38;;;20.70;43.80;;;;;;5035014;28;20013;-71
2021/10/02 13:53:29;;;;;;;11.02;2.25;;;20.60;43.10;;;;;;5035291;28;20017;-71
2021/10/02 13:55:55;;;;;;;6.97;1.95;;;20.40;43.80;;;;;;5033078;28;20567;-71
2021/10/02 13:58:26;;;;;;;10.38;2.70;;;20.40;44.10;;;;;;5036845;28;20069;-71